sensor_id;sensor_type;location;lat;lon;timestamp;pressure;altitude;pressure_sealevel;temperature;humidity
38786;BME280;24535;45.508;12.252;2023-02-20T00:01:27;102538.06;;;9.59;69.84
38786;BME280;24535;45.508;12.252;2023-02-20T00:03:53;102544.09;;;9.63;69.65
38786;BME280;24535;45.508;12.252;2023-02-20T00:06:18;102546.81;;;9.60;69.90
38786;BME280;24535;45.508;12.252;2023-02-20T00:08:44;102544.25;;;9.58;69.78
38786;BME280;24535;45.508;12.252;2023-02-20T00:11:09;102540.91;;;9.53;69.13
38786;BME280;24535;45.508;12.252;2023-02-20T00:13:35;102535.84;;;9.47;69.13
38786;BME280;24535;45.508;12.252;2023-02-20T00:16:00;102539.53;;;9.41;68.99
38786;BME280;24535;45.508;12.252;2023-02-20T00:18:26;102542.34;;;9.35;69.34
38786;BME280;24535;45.508;12.252;2023-02-20T00:20:52;102543.44;;;9.30;68.83
38786;BME280;24535;45.508;12.252;2023-02-20T00:23:17;102541.88;;;9.24;69.33
38786;BME280;24535;45.508;12.252;2023-02-20T00:25:43;102533.31;;;9.18;68.94
38786;BME280;24535;45.508;12.252;2023-02-20T00:28:09;102526.44;;;9.13;68.93
38786;BME280;24535;45.508;12.252;2023-02-20T00:30:34;102537.81;;;9.14;69.25
38786;BME280;24535;45.508;12.252;2023-02-20T00:33:00;102543.13;;;9.12;69.21
38786;BME280;24535;45.508;12.252;2023-02-20T00:35:26;102554.53;;;9.11;69.16
38786;BME280;24535;45.508;12.252;2023-02-20T00:37:52;102554.63;;;9.08;69.63
38786;BME280;24535;45.508;12.252;2023-02-20T00:40:20;102550.19;;;9.10;69.93
38786;BME280;24535;45.508;12.252;2023-02-20T00:42:46;102543.06;;;9.14;69.96
38786;BME280;24535;45.508;12.252;2023-02-20T00:45:13;102549.16;;;9.14;69.87
38786;BME280;24535;45.508;12.252;2023-02-20T00:51:02;102556.13;;;9.17;69.87
38786;BME280;24535;45.508;12.252;2023-02-20T00:53:27;102552.72;;;9.13;69.76
38786;BME280;24535;45.508;12.252;2023-02-20T00:55:52;102551.88;;;9.13;70.03
38786;BME280;24535;45.508;12.252;2023-02-20T00:58:18;102554.44;;;9.14;69.98
38786;BME280;24535;45.508;12.252;2023-02-20T01:00:43;102550.78;;;9.19;70.28
38786;BME280;24535;45.508;12.252;2023-02-20T01:03:09;102554.25;;;9.21;69.87
38786;BME280;24535;45.508;12.252;2023-02-20T01:05:34;102561.13;;;9.25;70.25
38786;BME280;24535;45.508;12.252;2023-02-20T01:08:00;102552.31;;;9.26;70.56
38786;BME280;24535;45.508;12.252;2023-02-20T01:10:25;102550.41;;;9.31;70.15
38786;BME280;24535;45.508;12.252;2023-02-20T01:12:50;102551.22;;;9.33;70.16
38786;BME280;24535;45.508;12.252;2023-02-20T01:15:16;102553.66;;;9.39;70.75
38786;BME280;24535;45.508;12.252;2023-02-20T01:17:41;102544.81;;;9.41;70.36
38786;BME280;24535;45.508;12.252;2023-02-20T01:20:07;102543.84;;;9.44;70.35
38786;BME280;24535;45.508;12.252;2023-02-20T01:22:33;102540.31;;;9.45;70.27
38786;BME280;24535;45.508;12.252;2023-02-20T01:24:58;102541.94;;;9.48;69.87
38786;BME280;24535;45.508;12.252;2023-02-20T01:27:24;102541.06;;;9.49;70.43
38786;BME280;24535;45.508;12.252;2023-02-20T01:29:49;102538.31;;;9.52;70.02
38786;BME280;24535;45.508;12.252;2023-02-20T01:32:15;102533.94;;;9.52;70.36
38786;BME280;24535;45.508;12.252;2023-02-20T01:34:40;102535.59;;;9.55;70.24
38786;BME280;24535;45.508;12.252;2023-02-20T01:37:05;102543.44;;;9.56;70.13
38786;BME280;24535;45.508;12.252;2023-02-20T01:39:34;102553.84;;;9.59;70.15
38786;BME280;24535;45.508;12.252;2023-02-20T01:42:01;102548.56;;;9.61;70.31
38786;BME280;24535;45.508;12.252;2023-02-20T01:44:32;102556.28;;;9.65;70.50
38786;BME280;24535;45.508;12.252;2023-02-20T01:47:21;102549.19;;;9.68;69.72
38786;BME280;24535;45.508;12.252;2023-02-20T01:50:05;102549.19;;;9.68;70.02
38786;BME280;24535;45.508;12.252;2023-02-20T01:52:33;102548.28;;;9.69;69.82
38786;BME280;24535;45.508;12.252;2023-02-20T01:55:18;102552.53;;;9.73;70.08
38786;BME280;24535;45.508;12.252;2023-02-20T01:57:50;102564.78;;;9.74;69.66
38786;BME280;24535;45.508;12.252;2023-02-20T02:00:20;102563.78;;;9.76;70.33
38786;BME280;24535;45.508;12.252;2023-02-20T02:02:51;102562.84;;;9.79;70.00
38786;BME280;24535;45.508;12.252;2023-02-20T02:05:18;102565.38;;;9.82;70.15
38786;BME280;24535;45.508;12.252;2023-02-20T02:07:45;102568.66;;;9.88;69.98
38786;BME280;24535;45.508;12.252;2023-02-20T02:10:17;102563.41;;;9.88;69.55
38786;BME280;24535;45.508;12.252;2023-02-20T02:12:46;102559.00;;;9.89;69.63
38786;BME280;24535;45.508;12.252;2023-02-20T02:15:19;102558.00;;;9.91;69.57
38786;BME280;24535;45.508;12.252;2023-02-20T02:40:40;102572.34;;;10.08;69.36
38786;BME280;24535;45.508;12.252;2023-02-20T02:43:22;102562.69;;;10.08;69.52
38786;BME280;24535;45.508;12.252;2023-02-20T02:48:41;102565.13;;;10.14;69.80
38786;BME280;24535;45.508;12.252;2023-02-20T02:51:15;102568.59;;;10.15;69.68
38786;BME280;24535;45.508;12.252;2023-02-20T02:56:41;102570.22;;;10.19;69.66
38786;BME280;24535;45.508;12.252;2023-02-20T02:59:10;102567.41;;;10.24;69.55
38786;BME280;24535;45.508;12.252;2023-02-20T03:01:42;102564.78;;;10.24;69.89
38786;BME280;24535;45.508;12.252;2023-02-20T03:04:10;102574.41;;;10.25;69.40
38786;BME280;24535;45.508;12.252;2023-02-20T03:06:40;102576.16;;;10.26;69.51
38786;BME280;24535;45.508;12.252;2023-02-20T03:09:18;102576.09;;;10.27;69.59
38786;BME280;24535;45.508;12.252;2023-02-20T03:11:45;102577.78;;;10.30;69.56
38786;BME280;24535;45.508;12.252;2023-02-20T03:14:20;102574.16;;;10.32;69.62
38786;BME280;24535;45.508;12.252;2023-02-20T03:22:15;102578.28;;;10.39;69.46
38786;BME280;24535;45.508;12.252;2023-02-20T03:24:43;102581.69;;;10.43;69.61
38786;BME280;24535;45.508;12.252;2023-02-20T03:27:22;102576.41;;;10.43;69.42
38786;BME280;24535;45.508;12.252;2023-02-20T03:29:55;102580.75;;;10.44;69.16
38786;BME280;24535;45.508;12.252;2023-02-20T03:32:23;102583.34;;;10.46;69.18
38786;BME280;24535;45.508;12.252;2023-02-20T03:35:08;102588.53;;;10.47;69.31
38786;BME280;24535;45.508;12.252;2023-02-20T03:37:54;102586.72;;;10.49;69.06
38786;BME280;24535;45.508;12.252;2023-02-20T03:40:39;102594.56;;;10.51;69.10
38786;BME280;24535;45.508;12.252;2023-02-20T03:43:25;102585.72;;;10.53;69.14
38786;BME280;24535;45.508;12.252;2023-02-20T03:46:05;102588.19;;;10.56;68.82
38786;BME280;24535;45.508;12.252;2023-02-20T03:48:44;102596.19;;;10.55;68.67
38786;BME280;24535;45.508;12.252;2023-02-20T03:51:11;102597.88;;;10.56;68.82
38786;BME280;24535;45.508;12.252;2023-02-20T03:53:42;102598.72;;;10.58;68.86
38786;BME280;24535;45.508;12.252;2023-02-20T03:56:12;102599.59;;;10.57;68.78
38786;BME280;24535;45.508;12.252;2023-02-20T03:58:42;102611.91;;;10.56;68.84
38786;BME280;24535;45.508;12.252;2023-02-20T04:01:11;102607.56;;;10.55;68.71
38786;BME280;24535;45.508;12.252;2023-02-20T04:03:41;102618.13;;;10.55;68.08
38786;BME280;24535;45.508;12.252;2023-02-20T04:06:10;102612.84;;;10.55;68.31
38786;BME280;24535;45.508;12.252;2023-02-20T04:08:41;102612.09;;;10.52;68.36
38786;BME280;24535;45.508;12.252;2023-02-20T04:11:13;102625.16;;;10.55;68.85
38786;BME280;24535;45.508;12.252;2023-02-20T04:13:40;102624.41;;;10.51;68.74
38786;BME280;24535;45.508;12.252;2023-02-20T04:16:06;102619.22;;;10.50;68.55
38786;BME280;24535;45.508;12.252;2023-02-20T04:18:32;102627.13;;;10.50;68.48
38786;BME280;24535;45.508;12.252;2023-02-20T04:21:02;102635.88;;;10.50;68.63
38786;BME280;24535;45.508;12.252;2023-02-20T04:23:34;102626.25;;;10.49;68.40
38786;BME280;24535;45.508;12.252;2023-02-20T04:26:08;102634.84;;;10.54;68.82
38786;BME280;24535;45.508;12.252;2023-02-20T04:28:36;102635.69;;;10.55;68.79
38786;BME280;24535;45.508;12.252;2023-02-20T04:31:01;102635.63;;;10.56;68.45
38786;BME280;24535;45.508;12.252;2023-02-20T04:33:27;102641.84;;;10.55;68.33
38786;BME280;24535;45.508;12.252;2023-02-20T04:35:52;102641.03;;;10.53;68.00
38786;BME280;24535;45.508;12.252;2023-02-20T04:38:19;102637.47;;;10.54;68.26
38786;BME280;24535;45.508;12.252;2023-02-20T04:40:44;102631.41;;;10.52;68.11
38786;BME280;24535;45.508;12.252;2023-02-20T04:43:09;102624.47;;;10.50;68.26
38786;BME280;24535;45.508;12.252;2023-02-20T04:45:35;102633.34;;;10.47;68.13
38786;BME280;24535;45.508;12.252;2023-02-20T04:48:00;102638.69;;;10.46;68.36
38786;BME280;24535;45.508;12.252;2023-02-20T04:50:28;102639.56;;;10.45;68.18
38786;BME280;24535;45.508;12.252;2023-02-20T04:52:54;102640.56;;;10.42;68.27
38786;BME280;24535;45.508;12.252;2023-02-20T04:55:20;102643.13;;;10.44;68.68
38786;BME280;24535;45.508;12.252;2023-02-20T04:57:47;102650.16;;;10.43;68.28
38786;BME280;24535;45.508;12.252;2023-02-20T05:00:14;102648.47;;;10.42;68.44
38786;BME280;24535;45.508;12.252;2023-02-20T05:02:40;102659.00;;;10.42;68.69
38786;BME280;24535;45.508;12.252;2023-02-20T05:05:13;102662.44;;;10.44;68.60
38786;BME280;24535;45.508;12.252;2023-02-20T05:07:39;102663.25;;;10.46;68.26
38786;BME280;24535;45.508;12.252;2023-02-20T05:10:05;102649.25;;;10.44;68.31
38786;BME280;24535;45.508;12.252;2023-02-20T05:12:31;102652.75;;;10.45;68.67
38786;BME280;24535;45.508;12.252;2023-02-20T05:14:56;102656.25;;;10.45;68.15
38786;BME280;24535;45.508;12.252;2023-02-20T05:17:21;102662.44;;;10.44;68.58
38786;BME280;24535;45.508;12.252;2023-02-20T05:19:47;102649.34;;;10.41;68.77
38786;BME280;24535;45.508;12.252;2023-02-20T05:22:12;102647.53;;;10.43;68.73
38786;BME280;24535;45.508;12.252;2023-02-20T05:24:45;102654.50;;;10.46;68.48
38786;BME280;24535;45.508;12.252;2023-02-20T05:27:11;102647.44;;;10.46;68.80
38786;BME280;24535;45.508;12.252;2023-02-20T05:29:43;102649.25;;;10.44;68.38
38786;BME280;24535;45.508;12.252;2023-02-20T05:32:10;102657.16;;;10.44;68.34
38786;BME280;24535;45.508;12.252;2023-02-20T05:34:35;102662.31;;;10.47;68.48
38786;BME280;24535;45.508;12.252;2023-02-20T05:37:00;102642.28;;;10.43;68.56
38786;BME280;24535;45.508;12.252;2023-02-20T05:39:26;102653.50;;;10.48;68.94
38786;BME280;24535;45.508;12.252;2023-02-20T05:41:51;102655.25;;;10.49;68.54
38786;BME280;24535;45.508;12.252;2023-02-20T05:44:17;102654.34;;;10.49;68.53
38786;BME280;24535;45.508;12.252;2023-02-20T05:46:42;102648.19;;;10.50;68.61
38786;BME280;24535;45.508;12.252;2023-02-20T05:49:08;102655.25;;;10.49;68.59
38786;BME280;24535;45.508;12.252;2023-02-20T05:51:34;102648.22;;;10.48;68.46
38786;BME280;24535;45.508;12.252;2023-02-20T05:54:00;102647.28;;;10.51;68.37
38786;BME280;24535;45.508;12.252;2023-02-20T05:56:25;102650.69;;;10.53;68.74
38786;BME280;24535;45.508;12.252;2023-02-20T05:58:52;102654.25;;;10.52;68.59
38786;BME280;24535;45.508;12.252;2023-02-20T06:01:20;102656.84;;;10.53;68.53
38786;BME280;24535;45.508;12.252;2023-02-20T06:03:46;102663.88;;;10.53;68.93
38786;BME280;24535;45.508;12.252;2023-02-20T06:06:12;102664.63;;;10.56;68.58
38786;BME280;24535;45.508;12.252;2023-02-20T06:08:38;102666.38;;;10.57;68.76
38786;BME280;24535;45.508;12.252;2023-02-20T06:11:04;102662.72;;;10.61;68.73
38786;BME280;24535;45.508;12.252;2023-02-20T06:13:30;102642.66;;;10.57;68.55
38786;BME280;24535;45.508;12.252;2023-02-20T06:15:55;102651.44;;;10.56;68.58
38786;BME280;24535;45.508;12.252;2023-02-20T06:18:21;102662.00;;;10.56;68.83
38786;BME280;24535;45.508;12.252;2023-02-20T06:20:46;102665.44;;;10.58;68.79
38786;BME280;24535;45.508;12.252;2023-02-20T06:23:12;102671.47;;;10.62;68.60
38786;BME280;24535;45.508;12.252;2023-02-20T06:25:37;102673.25;;;10.61;68.98
38786;BME280;24535;45.508;12.252;2023-02-20T06:28:03;102682.00;;;10.62;69.07
38786;BME280;24535;45.508;12.252;2023-02-20T06:30:28;102689.84;;;10.63;68.90
38786;BME280;24535;45.508;12.252;2023-02-20T06:32:54;102688.13;;;10.62;68.73
38786;BME280;24535;45.508;12.252;2023-02-20T06:35:19;102686.44;;;10.61;68.82
38786;BME280;24535;45.508;12.252;2023-02-20T06:37:45;102689.78;;;10.65;68.71
38786;BME280;24535;45.508;12.252;2023-02-20T06:40:10;102693.25;;;10.67;68.76
38786;BME280;24535;45.508;12.252;2023-02-20T06:42:36;102700.28;;;10.67;69.01
38786;BME280;24535;45.508;12.252;2023-02-20T06:45:02;102711.63;;;10.69;69.01
38786;BME280;24535;45.508;12.252;2023-02-20T06:47:30;102700.97;;;10.72;68.77
38786;BME280;24535;45.508;12.252;2023-02-20T06:49:56;102714.84;;;10.77;69.01
38786;BME280;24535;45.508;12.252;2023-02-20T06:52:21;102718.34;;;10.77;69.43
38786;BME280;24535;45.508;12.252;2023-02-20T06:54:47;102711.31;;;10.78;69.04
38786;BME280;24535;45.508;12.252;2023-02-20T06:57:12;102717.28;;;10.83;68.92
38786;BME280;24535;45.508;12.252;2023-02-20T06:59:38;102720.72;;;10.85;68.68
38786;BME280;24535;45.508;12.252;2023-02-20T07:02:11;102723.25;;;10.88;68.82
38786;BME280;24535;45.508;12.252;2023-02-20T07:04:36;102729.34;;;10.90;68.97
38786;BME280;24535;45.508;12.252;2023-02-20T07:07:02;102729.19;;;10.93;68.67
38786;BME280;24535;45.508;12.252;2023-02-20T07:09:27;102739.66;;;10.96;68.97
38786;BME280;24535;45.508;12.252;2023-02-20T07:11:53;102733.41;;;10.99;68.97
38786;BME280;24535;45.508;12.252;2023-02-20T07:14:19;102733.34;;;11.00;68.88
38786;BME280;24535;45.508;12.252;2023-02-20T07:16:45;102731.53;;;11.02;69.34
38786;BME280;24535;45.508;12.252;2023-02-20T07:19:11;102728.66;;;11.08;68.93
38786;BME280;24535;45.508;12.252;2023-02-20T07:21:36;102734.75;;;11.10;68.80
38786;BME280;24535;45.508;12.252;2023-02-20T07:24:02;102746.91;;;11.14;69.14
38786;BME280;24535;45.508;12.252;2023-02-20T07:26:28;102754.81;;;11.14;68.71
38786;BME280;24535;45.508;12.252;2023-02-20T07:28:54;102759.16;;;11.16;68.77
38786;BME280;24535;45.508;12.252;2023-02-20T07:31:22;102738.16;;;11.12;68.81
38786;BME280;24535;45.508;12.252;2023-02-20T07:33:48;102747.69;;;11.17;68.86
38786;BME280;24535;45.508;12.252;2023-02-20T07:36:14;102752.78;;;11.21;69.14
38786;BME280;24535;45.508;12.252;2023-02-20T07:38:40;102753.50;;;11.26;68.67
38786;BME280;24535;45.508;12.252;2023-02-20T07:41:07;102751.59;;;11.30;68.66
38786;BME280;24535;45.508;12.252;2023-02-20T07:43:33;102759.28;;;11.36;68.98
38786;BME280;24535;45.508;12.252;2023-02-20T07:46:00;102744.22;;;11.38;68.48
38786;BME280;24535;45.508;12.252;2023-02-20T07:48:34;102754.66;;;11.43;68.72
38786;BME280;24535;45.508;12.252;2023-02-20T07:51:01;102756.25;;;11.47;67.94
38786;BME280;24535;45.508;12.252;2023-02-20T07:53:27;102744.66;;;11.51;68.32
38786;BME280;24535;45.508;12.252;2023-02-20T07:55:52;102744.47;;;11.55;68.11
38786;BME280;24535;45.508;12.252;2023-02-20T07:58:18;102743.38;;;11.61;68.38
38786;BME280;24535;45.508;12.252;2023-02-20T08:00:43;102750.25;;;11.65;68.53
38786;BME280;24535;45.508;12.252;2023-02-20T08:03:09;102745.72;;;11.69;68.68
38786;BME280;24535;45.508;12.252;2023-02-20T08:05:35;102733.25;;;11.72;67.89
38786;BME280;24535;45.508;12.252;2023-02-20T08:08:01;102729.50;;;11.78;67.89
38786;BME280;24535;45.508;12.252;2023-02-20T08:10:27;102731.94;;;11.82;68.24
38786;BME280;24535;45.508;12.252;2023-02-20T08:12:53;102724.88;;;11.84;67.88
38786;BME280;24535;45.508;12.252;2023-02-20T08:15:20;102717.56;;;11.91;67.90
38786;BME280;24535;45.508;12.252;2023-02-20T08:17:46;102721.81;;;11.95;67.67
38786;BME280;24535;45.508;12.252;2023-02-20T08:20:12;102721.53;;;12.01;67.85
38786;BME280;24535;45.508;12.252;2023-02-20T08:22:38;102731.91;;;12.06;66.56
38786;BME280;24535;45.508;12.252;2023-02-20T08:25:04;102726.59;;;12.07;66.80
38786;BME280;24535;45.508;12.252;2023-02-20T08:27:31;102727.28;;;12.11;66.50
38786;BME280;24535;45.508;12.252;2023-02-20T08:29:57;102731.53;;;12.15;66.62
38786;BME280;24535;45.508;12.252;2023-02-20T08:32:22;102738.41;;;12.19;66.63
38786;BME280;24535;45.508;12.252;2023-02-20T08:34:48;102740.16;;;12.20;66.47
38786;BME280;24535;45.508;12.252;2023-02-20T08:37:13;102743.53;;;12.24;65.56
38786;BME280;24535;45.508;12.252;2023-02-20T08:39:39;102739.88;;;12.26;65.73
38786;BME280;24535;45.508;12.252;2023-02-20T08:42:04;102744.22;;;12.27;65.69
38786;BME280;24535;45.508;12.252;2023-02-20T08:44:30;102736.25;;;12.29;65.55
38786;BME280;24535;45.508;12.252;2023-02-20T08:46:56;102733.63;;;12.29;65.73
38786;BME280;24535;45.508;12.252;2023-02-20T08:49:21;102739.56;;;12.34;65.23
38786;BME280;24535;45.508;12.252;2023-02-20T08:51:47;102728.00;;;12.36;65.07
38786;BME280;24535;45.508;12.252;2023-02-20T08:54:16;102723.50;;;12.38;63.64
38786;BME280;24535;45.508;12.252;2023-02-20T08:56:41;102726.03;;;12.42;65.48
38786;BME280;24535;45.508;12.252;2023-02-20T08:59:07;102726.88;;;12.42;64.70
38786;BME280;24535;45.508;12.252;2023-02-20T09:01:33;102725.06;;;12.44;65.27
38786;BME280;24535;45.508;12.252;2023-02-20T09:03:58;102720.66;;;12.43;64.78
38786;BME280;24535;45.508;12.252;2023-02-20T09:06:23;102718.69;;;12.48;65.14
38786;BME280;24535;45.508;12.252;2023-02-20T09:08:51;102709.84;;;12.49;64.27
38786;BME280;24535;45.508;12.252;2023-02-20T09:11:16;102712.47;;;12.49;64.59
38786;BME280;24535;45.508;12.252;2023-02-20T09:13:43;102716.72;;;12.53;64.93
38786;BME280;24535;45.508;12.252;2023-02-20T09:16:10;102716.63;;;12.55;63.88
38786;BME280;24535;45.508;12.252;2023-02-20T09:18:36;102713.94;;;12.56;64.37
38786;BME280;24535;45.508;12.252;2023-02-20T09:21:01;102715.56;;;12.59;64.57
38786;BME280;24535;45.508;12.252;2023-02-20T09:23:27;102715.44;;;12.62;64.00
38786;BME280;24535;45.508;12.252;2023-02-20T09:25:52;102715.31;;;12.65;64.07
38786;BME280;24535;45.508;12.252;2023-02-20T09:28:18;102714.31;;;12.68;64.44
38786;BME280;24535;45.508;12.252;2023-02-20T09:30:44;102718.69;;;12.69;63.71
38786;BME280;24535;45.508;12.252;2023-02-20T09:33:09;102716.06;;;12.69;64.27
38786;BME280;24535;45.508;12.252;2023-02-20T09:35:35;102722.94;;;12.73;63.96
38786;BME280;24535;45.508;12.252;2023-02-20T09:38:00;102715.00;;;12.73;63.19
38786;BME280;24535;45.508;12.252;2023-02-20T09:40:28;102722.00;;;12.74;63.30
38786;BME280;24535;45.508;12.252;2023-02-20T09:45:43;102710.34;;;12.78;62.96
38786;BME280;24535;45.508;12.252;2023-02-20T09:48:50;102713.00;;;12.78;63.06
38786;BME280;24535;45.508;12.252;2023-02-20T09:51:24;102709.41;;;12.79;63.31
38786;BME280;24535;45.508;12.252;2023-02-20T09:54:12;102715.56;;;12.79;62.40
38786;BME280;24535;45.508;12.252;2023-02-20T09:56:44;102706.72;;;12.80;62.38
38786;BME280;24535;45.508;12.252;2023-02-20T10:02:09;102717.13;;;12.83;62.64
38786;BME280;24535;45.508;12.252;2023-02-20T10:04:39;102711.84;;;12.83;63.03
38786;BME280;24535;45.508;12.252;2023-02-20T10:07:25;102714.44;;;12.85;63.26
38786;BME280;24535;45.508;12.252;2023-02-20T10:09:52;102713.44;;;12.87;62.88
38786;BME280;24535;45.508;12.252;2023-02-20T10:15:53;102713.16;;;12.94;62.93
38786;BME280;24535;45.508;12.252;2023-02-20T10:20:51;102717.31;;;12.99;60.75
38786;BME280;24535;45.508;12.252;2023-02-20T10:26:08;102725.13;;;13.02;63.00
38786;BME280;24535;45.508;12.252;2023-02-20T10:28:36;102717.91;;;13.06;62.28
38786;BME280;24535;45.508;12.252;2023-02-20T10:33:58;102721.06;;;13.14;63.09
38786;BME280;24535;45.508;12.252;2023-02-20T10:36:33;102718.19;;;13.19;62.23
38786;BME280;24535;45.508;12.252;2023-02-20T10:39:15;102717.88;;;13.26;61.83
38786;BME280;24535;45.508;12.252;2023-02-20T10:41:51;102714.03;;;13.33;62.30
38786;BME280;24535;45.508;12.252;2023-02-20T10:52:24;102711.00;;;13.60;61.01
38786;BME280;24535;45.508;12.252;2023-02-20T10:55:08;102715.28;;;13.63;61.43
38786;BME280;24535;45.508;12.252;2023-02-20T10:57:43;102702.06;;;13.63;61.09
38786;BME280;24535;45.508;12.252;2023-02-20T11:00:22;102705.34;;;13.68;61.21
38786;BME280;24535;45.508;12.252;2023-02-20T11:03:00;102703.41;;;13.71;60.71
38786;BME280;24535;45.508;12.252;2023-02-20T11:05:31;102695.38;;;13.73;60.23
38786;BME280;24535;45.508;12.252;2023-02-20T11:08:00;102690.88;;;13.75;60.05
38786;BME280;24535;45.508;12.252;2023-02-20T11:10:25;102688.22;;;13.75;60.35
38786;BME280;24535;45.508;12.252;2023-02-20T11:12:55;102689.06;;;13.75;60.00
38786;BME280;24535;45.508;12.252;2023-02-20T11:15:27;102686.41;;;13.75;59.99
38786;BME280;24535;45.508;12.252;2023-02-20T11:17:54;102680.28;;;13.75;60.27
38786;BME280;24535;45.508;12.252;2023-02-20T11:23:06;102673.19;;;13.75;59.77
38786;BME280;24535;45.508;12.252;2023-02-20T11:25:36;102666.88;;;13.78;60.11
38786;BME280;24535;45.508;12.252;2023-02-20T11:28:22;102665.94;;;13.79;59.13
38786;BME280;24535;45.508;12.252;2023-02-20T11:31:03;102663.28;;;13.79;59.17
38786;BME280;24535;45.508;12.252;2023-02-20T11:33:33;102665.94;;;13.79;59.43
38786;BME280;24535;45.508;12.252;2023-02-20T11:38:41;102658.94;;;13.78;59.44
38786;BME280;24535;45.508;12.252;2023-02-20T11:41:15;102656.28;;;13.78;59.45
38786;BME280;24535;45.508;12.252;2023-02-20T11:43:46;102658.84;;;13.79;60.17
38786;BME280;24535;45.508;12.252;2023-02-20T11:51:41;102639.31;;;13.82;59.91
38786;BME280;24535;45.508;12.252;2023-02-20T11:54:16;102638.38;;;13.83;59.77
38786;BME280;24535;45.508;12.252;2023-02-20T11:59:30;102626.06;;;13.82;59.05
38786;BME280;24535;45.508;12.252;2023-02-20T12:05:07;102627.16;;;13.78;58.90
38786;BME280;24535;45.508;12.252;2023-02-20T12:10:26;102613.19;;;13.74;58.56
38786;BME280;24535;45.508;12.252;2023-02-20T12:12:53;102616.84;;;13.72;59.19
38786;BME280;24535;45.508;12.252;2023-02-20T12:15:22;102603.59;;;13.72;59.30
38786;BME280;24535;45.508;12.252;2023-02-20T12:20:26;102589.50;;;13.71;58.98
38786;BME280;24535;45.508;12.252;2023-02-20T12:28:49;102577.91;;;13.74;59.04
38786;BME280;24535;45.508;12.252;2023-02-20T12:31:40;102567.47;;;13.71;59.95
38786;BME280;24535;45.508;12.252;2023-02-20T12:34:20;102576.25;;;13.71;59.43
38786;BME280;24535;45.508;12.252;2023-02-20T12:37:05;102570.09;;;13.71;59.56
38786;BME280;24535;45.508;12.252;2023-02-20T12:43:06;102563.72;;;13.75;59.86
38786;BME280;24535;45.508;12.252;2023-02-20T12:51:24;102559.97;;;13.79;58.93
38786;BME280;24535;45.508;12.252;2023-02-20T12:54:06;102559.13;;;13.78;59.65
38786;BME280;24535;45.508;12.252;2023-02-20T12:57:03;102550.25;;;13.79;58.96
38786;BME280;24535;45.508;12.252;2023-02-20T12:59:40;102546.72;;;13.79;59.64
38786;BME280;24535;45.508;12.252;2023-02-20T13:02:24;102544.09;;;13.79;58.97
38786;BME280;24535;45.508;12.252;2023-02-20T13:04:55;102530.03;;;13.77;59.80
38786;BME280;24535;45.508;12.252;2023-02-20T13:07:39;102527.41;;;13.77;59.32
38786;BME280;24535;45.508;12.252;2023-02-20T13:10:15;102526.50;;;13.78;58.97
38786;BME280;24535;45.508;12.252;2023-02-20T13:12:42;102515.03;;;13.77;59.45
38786;BME280;24535;45.508;12.252;2023-02-20T13:20:29;102496.66;;;13.74;59.82
38786;BME280;24535;45.508;12.252;2023-02-20T13:23:02;102504.59;;;13.74;59.83
38786;BME280;24535;45.508;12.252;2023-02-20T13:28:27;102497.50;;;13.75;59.78
38786;BME280;24535;45.508;12.252;2023-02-20T13:31:09;102501.94;;;13.74;59.36
38786;BME280;24535;45.508;12.252;2023-02-20T13:33:35;102516.97;;;13.74;59.83
38786;BME280;24535;45.508;12.252;2023-02-20T13:36:03;102505.75;;;13.69;59.08
38786;BME280;24535;45.508;12.252;2023-02-20T13:38:29;102505.75;;;13.69;59.43
38786;BME280;24535;45.508;12.252;2023-02-20T13:56:26;102483.16;;;13.79;59.45
38786;BME280;24535;45.508;12.252;2023-02-20T13:58:56;102474.28;;;13.80;58.80
38786;BME280;24535;45.508;12.252;2023-02-20T14:01:23;102466.25;;;13.81;59.70
38786;BME280;24535;45.508;12.252;2023-02-20T14:04:05;102468.03;;;13.81;59.27
38786;BME280;24535;45.508;12.252;2023-02-20T14:06:31;102471.47;;;13.83;58.88
38786;BME280;24535;45.508;12.252;2023-02-20T14:09:12;102463.66;;;13.80;59.24
38786;BME280;24535;45.508;12.252;2023-02-20T14:11:40;102473.25;;;13.82;59.41
38786;BME280;24535;45.508;12.252;2023-02-20T14:14:09;102470.47;;;13.85;58.94
38786;BME280;24535;45.508;12.252;2023-02-20T14:16:38;102466.16;;;13.83;59.14
38786;BME280;24535;45.508;12.252;2023-02-20T14:19:22;102466.78;;;13.88;59.03
38786;BME280;24535;45.508;12.252;2023-02-20T14:21:48;102461.47;;;13.88;59.16
38786;BME280;24535;45.508;12.252;2023-02-20T14:24:21;102463.97;;;13.91;59.19
38786;BME280;24535;45.508;12.252;2023-02-20T14:26:48;102465.66;;;13.92;60.15
38786;BME280;24535;45.508;12.252;2023-02-20T14:29:22;102469.88;;;13.96;59.67
38786;BME280;24535;45.508;12.252;2023-02-20T14:31:53;102457.47;;;13.97;59.94
38786;BME280;24535;45.508;12.252;2023-02-20T14:37:36;102460.13;;;13.97;59.82
38786;BME280;24535;45.508;12.252;2023-02-20T14:40:46;102463.63;;;13.97;58.58
38786;BME280;24535;45.508;12.252;2023-02-20T14:43:22;102452.38;;;13.94;59.13
38786;BME280;24535;45.508;12.252;2023-02-20T14:46:00;102457.56;;;13.95;58.78
38786;BME280;24535;45.508;12.252;2023-02-20T14:48:29;102459.53;;;13.92;59.02
38786;BME280;24535;45.508;12.252;2023-02-20T14:51:08;102454.13;;;13.93;59.12
38786;BME280;24535;45.508;12.252;2023-02-20T14:53:36;102449.94;;;13.89;58.50
38786;BME280;24535;45.508;12.252;2023-02-20T14:56:13;102456.03;;;13.91;58.68
38786;BME280;24535;45.508;12.252;2023-02-20T14:58:39;102452.69;;;13.88;59.53
38786;BME280;24535;45.508;12.252;2023-02-20T15:04:15;102448.56;;;13.82;59.46